Time;durP1;ratioP1;P1;durP2;ratioP2;P2;SDS_P1;SDS_P2;PMS_P1;PMS_P2;Temp;Humidity;BMP_temperature;BMP_pressure;BME280_temperature;BME280_humidity;BME280_pressure;Samples;Min_cycle;Max_cycle;Signal;HPM_P1;HPM_P2
2020/12/16 00:01:08;;;;;;;54.00;33.37;;;;;;;10.34;100.00;100321.13;5098689;28;20589;-34
2020/12/16 00:03:57;;;;;;;54.43;32.17;;;;;;;10.49;100.00;100322.75;5098571;28;20208;-38
2020/12/16 00:06:45;;;;;;;57.37;36.30;;;;;;;10.51;100.00;100315.84;5098943;28;20594;-36
2020/12/16 00:09:32;;;;;;;53.37;34.67;;;;;;;10.61;100.00;100320.91;5098416;28;20663;-37
2020/12/16 00:12:17;;;;;;;54.17;33.70;;;;;;;10.74;100.00;100323.41;5098584;28;20203;-36
2020/12/16 00:15:03;;;;;;;61.00;35.23;;;;;;;10.61;100.00;100318.31;5098715;28;20285;-35
2020/12/16 00:17:53;;;;;;;55.57;32.23;;;;;;;10.63;100.00;100316.59;5098538;28;20231;-35
2020/12/16 00:20:39;;;;;;;52.10;33.43;;;;;;;9.92;100.00;100317.03;5098542;28;20249;-38
2020/12/16 00:23:25;;;;;;;53.40;33.50;;;;;;;10.20;100.00;100318.63;5098645;28;20211;-37
2020/12/16 00:26:12;;;;;;;50.33;31.93;;;;;;;10.21;100.00;100322.06;5098569;28;20497;-40
2020/12/16 00:28:59;;;;;;;49.10;30.83;;;;;;;9.93;100.00;100324.78;5098210;28;20195;-37
2020/12/16 00:31:45;;;;;;;48.60;31.43;;;;;;;9.40;100.00;100317.25;5098299;28;20194;-37
2020/12/16 00:34:32;;;;;;;51.23;30.37;;;;;;;9.73;100.00;100318.00;5098672;28;20230;-35
2020/12/16 00:37:18;;;;;;;49.10;30.47;;;;;;;9.54;100.00;100320.66;5098342;28;20243;-38
2020/12/16 00:40:05;;;;;;;53.87;33.00;;;;;;;9.41;100.00;100331.00;5098278;28;20207;-38
2020/12/16 00:42:51;;;;;;;54.87;32.50;;;;;;;9.66;100.00;100324.91;5097823;28;20327;-35
2020/12/16 00:45:37;;;;;;;53.77;31.80;;;;;;;9.50;100.00;100326.69;5097908;28;20266;-34
2020/12/16 00:48:23;;;;;;;48.70;32.07;;;;;;;9.38;100.00;100324.16;5097909;28;20207;-37
2020/12/16 00:51:13;;;;;;;53.43;32.23;;;;;;;9.33;100.00;100331.91;5097580;28;20197;-33
2020/12/16 00:53:58;;;;;;;54.90;30.47;;;;;;;9.16;100.00;100330.22;5097385;28;20201;-33
2020/12/16 00:56:44;;;;;;;56.03;33.70;;;;;;;9.36;100.00;100338.78;5096015;28;20595;-38
2020/12/16 00:59:30;;;;;;;56.90;33.80;;;;;;;9.37;100.00;100337.06;5096545;28;20207;-36
2020/12/16 01:02:15;;;;;;;56.00;33.73;;;;;;;9.20;100.00;100337.09;5096716;28;20200;-36
2020/12/16 01:05:01;;;;;;;57.20;31.87;;;;;;;8.87;100.00;100343.16;5096168;28;20231;-36
2020/12/16 01:07:48;;;;;;;55.47;33.60;;;;;;;8.74;100.00;100346.59;5096173;28;20341;-36
2020/12/16 01:10:34;;;;;;;53.30;31.43;;;;;;;8.91;100.00;100355.19;5096328;28;20285;-36
2020/12/16 01:13:20;;;;;;;50.87;31.20;;;;;;;8.92;100.00;100356.91;5096723;28;20295;-37
2020/12/16 01:16:05;;;;;;;50.37;32.23;;;;;;;8.81;100.00;100354.31;5095710;28;20289;-37
2020/12/16 01:18:51;;;;;;;61.07;34.43;;;;;;;9.01;100.00;100354.31;5096175;28;20199;-38
2020/12/16 01:21:38;;;;;;;54.93;31.97;;;;;;;9.44;100.00;100356.81;5096765;28;20207;-34
2020/12/16 01:24:26;;;;;;;51.43;32.40;;;;;;;9.04;100.00;100350.88;5096363;28;20203;-32
2020/12/16 01:27:14;;;;;;;56.70;33.87;;;;;;;9.47;100.00;100360.25;5097644;28;20552;-37
2020/12/16 01:30:00;;;;;;;49.90;30.83;;;;;;;9.18;100.00;100359.47;5097588;28;20535;-34
2020/12/16 01:32:46;;;;;;;46.77;30.10;;;;;;;8.84;100.00;100359.50;5097398;28;20203;-34
2020/12/16 01:35:32;;;;;;;52.53;32.30;;;;;;;8.85;100.00;100350.91;5097040;28;20195;-34
2020/12/16 01:38:18;;;;;;;49.33;30.77;;;;;;;8.96;100.00;100353.47;5097034;28;20237;-36
2020/12/16 01:41:06;;;;;;;51.77;31.70;;;;;;;9.33;100.00;100357.72;5097084;28;20303;-36
2020/12/16 01:43:51;;;;;;;53.00;32.20;;;;;;;9.10;100.00;100351.75;5097134;28;20682;-34
2020/12/16 01:46:37;;;;;;;46.40;30.37;;;;;;;8.81;100.00;100351.75;5097224;28;20226;-34
2020/12/16 01:49:24;;;;;;;53.70;30.13;;;;;;;8.80;100.00;100354.31;5097317;28;20198;-34
2020/12/16 01:52:15;;;;;;;54.00;32.40;;;;;;;9.05;100.00;100358.63;5097304;28;20203;-39
2020/12/16 01:55:02;;;;;;;55.43;32.87;;;;;;;9.12;100.00;100350.03;5097370;28;20341;-35
2020/12/16 01:57:54;;;;;;;51.40;30.77;;;;;;;8.53;100.00;100353.47;5097049;28;20486;-36
2020/12/16 02:00:40;;;;;;;53.57;32.40;;;;;;;8.32;100.00;100366.31;5096904;28;20199;-34
2020/12/16 02:03:29;;;;;;;46.47;30.97;;;;;;;8.36;100.00;100360.34;5097201;28;20200;-34
2020/12/16 02:06:16;;;;;;;46.67;30.83;;;;;;;8.27;100.00;100357.69;5098263;28;20630;-36
2020/12/16 02:09:04;;;;;;;49.60;30.93;;;;;;;8.17;100.00;100354.25;5100871;28;20261;-33
2020/12/16 02:11:51;;;;;;;52.33;32.20;;;;;;;8.12;100.00;100350.78;5101264;28;20633;-36
2020/12/16 02:14:37;;;;;;;47.57;29.63;;;;;;;7.95;100.00;100345.59;5101007;28;20201;-34
2020/12/16 02:17:23;;;;;;;47.13;29.77;;;;;;;7.81;100.00;100352.38;5101122;28;20325;-37
2020/12/16 02:20:09;;;;;;;54.53;31.77;;;;;;;7.76;100.00;100348.97;5101033;28;20199;-37
2020/12/16 02:22:57;;;;;;;54.33;30.67;;;;;;;7.73;100.00;100363.53;5101151;28;20608;-36
2020/12/16 02:25:43;;;;;;;53.97;32.30;;;;;;;7.67;100.00;100355.75;5099651;28;20272;-36
2020/12/16 02:28:32;;;;;;;48.10;30.20;;;;;;;7.47;100.00;100363.38;5099224;28;20200;-34
2020/12/16 02:31:19;;;;;;;51.97;30.13;;;;;;;7.49;100.00;100370.28;5099237;28;20198;-34
2020/12/16 02:34:05;;;;;;;54.03;30.97;;;;;;;7.47;100.00;100368.53;5099230;28;20218;-36
2020/12/16 02:36:51;;;;;;;55.13;29.67;;;;;;;7.42;100.00;100368.50;5098936;28;20780;-33
2020/12/16 02:39:36;;;;;;;56.13;29.63;;;;;;;7.36;100.00;100371.06;5099212;28;20281;-33
2020/12/16 02:42:25;;;;;;;52.73;28.13;;;;;;;7.33;100.00;100370.19;5098986;28;20198;-32
2020/12/16 02:45:11;;;;;;;50.63;28.57;;;;;;;7.32;100.00;100368.47;5098903;28;20219;-35
2020/12/16 02:47:56;;;;;;;57.73;32.93;;;;;;;7.45;100.00;100363.38;5098646;28;20605;-34
2020/12/16 02:50:42;;;;;;;61.53;32.27;;;;;;;7.46;100.00;100361.66;5099365;28;20199;-34
2020/12/16 02:53:28;;;;;;;48.43;30.13;;;;;;;7.39;100.00;100362.50;5098744;28;20341;-34
2020/12/16 02:56:14;;;;;;;53.13;30.70;;;;;;;7.48;100.00;100363.41;5100042;28;20220;-34
2020/12/16 02:59:01;;;;;;;52.37;30.53;;;;;;;7.31;100.00;100359.00;5100199;28;20230;-33
2020/12/16 03:01:48;;;;;;;47.73;28.00;;;;;;;7.12;100.00;100371.75;5100047;28;20196;-36
2020/12/16 03:04:33;;;;;;;44.93;29.17;;;;;;;6.99;100.00;100382.81;5099824;28;20229;-34
2020/12/16 03:07:19;;;;;;;47.67;28.50;;;;;;;7.00;100.00;100371.66;5099965;28;20215;-36
2020/12/16 03:10:05;;;;;;;52.33;30.07;;;;;;;7.00;100.00;100381.94;5099610;28;20203;-34
2020/12/16 03:12:50;;;;;;;56.00;31.20;;;;;;;7.13;100.00;100376.06;5099531;28;20309;-33
2020/12/16 03:15:37;;;;;;;52.10;30.03;;;;;;;6.99;100.00;100384.53;5099838;28;20474;-34
2020/12/16 03:18:23;;;;;;;57.50;32.07;;;;;;;6.92;100.00;100383.63;5098866;28;20206;-33
2020/12/16 03:21:08;;;;;;;57.27;32.50;;;;;;;6.99;100.00;100384.53;5099904;28;20474;-35
2020/12/16 03:23:55;;;;;;;56.97;32.73;;;;;;;6.94;100.00;100381.06;5099654;28;20204;-32
2020/12/16 03:26:40;;;;;;;50.07;30.27;;;;;;;6.93;100.00;100387.91;5099437;28;20226;-35
2020/12/16 03:29:26;;;;;;;46.73;28.67;;;;;;;6.72;100.00;100395.44;5099764;28;20308;-33
2020/12/16 03:32:12;;;;;;;54.43;30.87;;;;;;;6.75;100.00;100392.91;5099294;28;20289;-33
2020/12/16 03:34:58;;;;;;;55.30;31.83;;;;;;;6.71;100.00;100392.00;5099645;28;20252;-36
2020/12/16 03:37:43;;;;;;;59.37;31.70;;;;;;;6.81;100.00;100390.34;5099438;28;20515;-35
2020/12/16 03:40:29;;;;;;;53.10;31.83;;;;;;;6.94;100.00;100392.19;5099087;28;20742;-32
2020/12/16 03:43:14;;;;;;;49.50;29.73;;;;;;;6.90;100.00;100393.88;5099486;28;20207;-32
2020/12/16 03:46:00;;;;;;;52.33;30.33;;;;;;;7.00;100.00;100389.66;5099291;28;20241;-34
2020/12/16 03:48:47;;;;;;;53.83;30.77;;;;;;;6.97;100.00;100392.22;5099423;28;20199;-33
2020/12/16 03:51:33;;;;;;;51.57;31.03;;;;;;;6.87;100.00;100391.28;5099636;28;20204;-34
2020/12/16 03:54:18;;;;;;;45.93;28.77;;;;;;;6.82;100.00;100386.94;5099210;28;20289;-33
2020/12/16 03:57:04;;;;;;;47.47;29.10;;;;;;;6.80;100.00;100389.50;5097473;28;20613;-34
2020/12/16 03:59:50;;;;;;;46.07;28.23;;;;;;;6.74;100.00;100386.03;5097630;28;20280;-34
2020/12/16 04:02:36;;;;;;;46.47;28.13;;;;;;;6.77;100.00;100384.34;5097425;28;20195;-35
2020/12/16 04:05:23;;;;;;;45.37;27.90;;;;;;;6.64;100.00;100389.34;5097616;28;20495;-33
2020/12/16 04:08:08;;;;;;;46.53;27.27;;;;;;;6.60;100.00;100387.59;5097815;28;20203;-32
2020/12/16 04:10:54;;;;;;;51.87;28.70;;;;;;;6.53;100.00;100384.13;5097652;28;20257;-35
2020/12/16 04:13:40;;;;;;;45.43;27.87;;;;;;;6.44;100.00;100384.03;5097698;28;20606;-33
2020/12/16 04:16:26;;;;;;;48.50;27.50;;;;;;;6.41;100.00;100390.00;5097397;28;20195;-32
2020/12/16 04:19:12;;;;;;;50.27;29.97;;;;;;;6.43;100.00;100393.44;5098008;28;20672;-36
2020/12/16 04:22:01;;;;;;;51.27;30.00;;;;;;;6.42;100.00;100396.84;5096895;28;20195;-35
2020/12/16 04:24:46;;;;;;;51.03;29.97;;;;;;;6.42;100.00;100396.00;5097212;28;20207;-31
2020/12/16 04:27:32;;;;;;;55.57;31.23;;;;;;;6.46;100.00;100398.63;5098381;28;20199;-35
2020/12/16 04:30:18;;;;;;;54.13;31.43;;;;;;;6.43;100.00;100398.56;5098273;28;20195;-35
2020/12/16 04:33:04;;;;;;;51.77;29.07;;;;;;;6.38;100.00;100394.25;5097900;28;20198;-32
2020/12/16 04:35:50;;;;;;;47.17;28.37;;;;;;;6.18;100.00;100389.78;5098082;28;20288;-36
2020/12/16 04:38:37;;;;;;;52.60;30.57;;;;;;;6.07;100.00;100383.63;5097255;28;20301;-33
2020/12/16 04:41:23;;;;;;;56.47;29.80;;;;;;;6.12;100.00;100374.28;5097828;28;20195;-38
2020/12/16 04:44:11;;;;;;;55.37;30.13;;;;;;;6.17;100.00;100358.94;5097899;28;20277;-34
2020/12/16 04:46:57;;;;;;;62.43;32.53;;;;;;;6.26;100.00;100364.16;5098197;28;20222;-32
2020/12/16 04:49:43;;;;;;;63.63;32.77;;;;;;;6.36;100.00;100360.84;5098116;28;20577;-32
2020/12/16 04:52:29;;;;;;;64.43;33.03;;;;;;;6.46;100.00;100365.22;5097518;28;20570;-32
2020/12/16 04:55:32;;;;;;;73.53;33.97;;;;;;;7.01;100.00;100375.09;5097704;28;20286;-32
2020/12/16 04:58:18;;;;;;;68.07;33.97;;;;;;;7.04;100.00;100383.69;5098089;28;20203;-35
2020/12/16 05:01:03;;;;;;;63.53;34.50;;;;;;;6.86;100.00;100381.84;5097554;28;20249;-32
2020/12/16 05:03:49;;;;;;;74.40;36.27;;;;;;;6.57;100.00;100376.47;5097705;28;20199;-32
2020/12/16 05:06:36;;;;;;;58.73;32.57;;;;;;;6.32;100.00;100371.94;5097892;28;20235;-34
2020/12/16 05:09:22;;;;;;;63.20;33.30;;;;;;;6.19;100.00;100370.09;5097095;28;20344;-35
2020/12/16 05:12:17;;;;;;;59.97;32.80;;;;;;;6.42;100.00;100378.88;5097022;28;20264;-34
2020/12/16 05:15:03;;;;;;;59.00;33.20;;;;;;;6.42;100.00;100373.72;5097195;28;20222;-33
2020/12/16 05:18:07;;;;;;;59.57;32.53;;;;;;;6.50;100.00;100368.69;5097558;28;20244;-34
2020/12/16 05:20:55;;;;;;;55.43;30.23;;;;;;;6.51;100.00;100366.13;5097201;28;20249;-35
2020/12/16 05:23:40;;;;;;;53.00;30.17;;;;;;;6.46;100.00;100372.06;5096688;28;20345;-35
2020/12/16 05:26:26;;;;;;;50.30;29.67;;;;;;;6.47;100.00;100373.78;5097152;28;20695;-33
2020/12/16 05:29:13;;;;;;;52.47;29.27;;;;;;;6.49;100.00;100372.94;5096430;28;20880;-34
2020/12/16 05:31:58;;;;;;;50.07;27.70;;;;;;;6.49;100.00;100377.22;5096413;28;20248;-32
2020/12/16 05:34:44;;;;;;;63.63;36.67;;;;;;;6.47;100.00;100374.66;5096733;28;20478;-32
2020/12/16 05:37:33;;;;;;;77.20;42.40;;;;;;;6.81;100.00;100383.50;5096347;28;20317;-36
2020/12/16 05:40:21;;;;;;;62.47;34.00;;;;;;;6.65;100.00;100394.50;5095440;28;20258;-33
2020/12/16 05:43:08;;;;;;;50.70;28.80;;;;;;;6.18;100.00;100389.78;5095579;28;20199;-32
2020/12/16 05:45:55;;;;;;;48.42;33.47;;;;;;;6.21;100.00;100389.78;5093132;28;20928;-32
2020/12/16 05:48:40;;;;;;;49.93;27.97;;;;;;;6.26;100.00;100394.13;5094797;28;20298;-34
2020/12/16 05:51:26;;;;;;;50.90;28.87;;;;;;;6.25;100.00;100393.25;5094811;28;20203;-35
2020/12/16 05:54:13;;;;;;;49.67;27.33;;;;;;;6.21;100.00;100384.66;5095437;28;20195;-35
2020/12/16 05:57:09;;;;;;;58.53;31.07;;;;;;;6.35;100.00;100389.94;5095739;28;20195;-34
2020/12/16 06:00:05;;;;;;;52.50;28.67;;;;;;;6.38;100.00;100384.84;5095313;28;20632;-34
2020/12/16 06:02:57;;;;;;;51.43;27.43;;;;;;;6.41;100.00;100392.56;5094818;28;20208;-32
2020/12/16 06:05:46;;;;;;;53.57;28.87;;;;;;;6.49;100.00;100397.78;5095765;28;20223;-34
2020/12/16 06:08:34;;;;;;;49.33;28.03;;;;;;;6.50;100.00;100410.66;5096463;28;20623;-31
2020/12/16 06:11:20;;;;;;;54.50;29.27;;;;;;;6.52;100.00;100414.09;5096925;28;20512;-37
2020/12/16 06:14:06;;;;;;;58.53;29.87;;;;;;;6.50;100.00;100414.94;5096623;28;20598;-33
2020/12/16 06:17:09;;;;;;;53.63;29.57;;;;;;;6.45;100.00;100416.59;5096550;28;20595;-32
2020/12/16 06:20:00;;;;;;;55.70;30.83;;;;;;;6.36;100.00;100417.38;5097060;28;20434;-35
2020/12/16 06:22:47;;;;;;;53.00;31.00;;;;;;;6.40;100.00;100407.97;5096236;28;20199;-31
2020/12/16 06:25:37;;;;;;;53.50;28.53;;;;;;;6.45;100.00;100421.72;5076099;28;20204;-37
2020/12/16 06:28:23;;;;;;;59.50;29.17;;;;;;;6.42;100.00;100411.41;5076285;28;20195;-33
2020/12/16 06:31:18;;;;;;;58.03;28.97;;;;;;;6.46;100.00;100419.16;5075819;28;20188;-38
2020/12/16 06:34:05;;;;;;;47.87;28.63;;;;;;;6.28;100.00;100413.84;5075707;28;20249;-34
2020/12/16 06:36:53;;;;;;;55.80;30.87;;;;;;;6.45;100.00;100414.88;5075926;28;20204;-35
2020/12/16 06:39:40;;;;;;;56.60;30.77;;;;;;;6.28;100.00;100418.97;5075719;28;20212;-34
2020/12/16 06:42:33;;;;;;;49.60;29.83;;;;;;;6.41;100.00;100409.69;5075582;28;20200;-32
2020/12/16 06:45:19;;;;;;;50.90;28.23;;;;;;;6.27;100.00;100411.25;5075550;28;20196;-33
2020/12/16 06:48:32;;;;;;;52.90;27.47;;;;;;;6.20;100.00;100405.19;5075361;28;20208;-34
2020/12/16 06:51:21;;;;;;;52.97;28.87;;;;;;;6.19;100.00;100404.31;5074899;28;20204;-34
2020/12/16 06:54:09;;;;;;;58.80;29.83;;;;;;;6.26;100.00;100394.97;5078972;28;20242;-35
2020/12/16 06:57:12;;;;;;;59.87;31.50;;;;;;;6.25;100.00;100397.53;5078892;28;20613;-35
2020/12/16 06:59:59;;;;;;;57.40;29.33;;;;;;;6.20;100.00;100398.34;5079253;28;20247;-34
2020/12/16 07:02:50;;;;;;;48.87;27.73;;;;;;;6.31;100.00;100400.16;5078584;28;20606;-38
2020/12/16 07:05:41;;;;;;;56.83;28.73;;;;;;;6.35;100.00;100401.94;5077986;28;20648;-35
2020/12/16 07:08:30;;;;;;;54.50;28.23;;;;;;;6.44;100.00;100399.44;5078457;28;20200;-35
2020/12/16 07:11:38;;;;;;;52.83;26.00;;;;;;;6.58;100.00;100408.16;5077580;28;20208;-32
2020/12/16 07:14:27;;;;;;;52.03;27.13;;;;;;;6.35;100.00;100414.78;5077812;28;20207;-36
2020/12/16 07:17:12;;;;;;;51.87;26.10;;;;;;;6.41;100.00;100410.53;5077819;28;20199;-34
2020/12/16 07:19:58;;;;;;;47.77;26.57;;;;;;;6.32;100.00;100409.59;5077120;28;20257;-32
2020/12/16 07:22:46;;;;;;;45.27;26.67;;;;;;;6.28;100.00;100412.97;5077740;28;20289;-35
2020/12/16 07:25:37;;;;;;;45.83;25.37;;;;;;;6.27;100.00;100414.69;5077844;28;20226;-35
2020/12/16 07:28:24;;;;;;;46.80;25.80;;;;;;;6.24;100.00;100427.50;5077641;28;20203;-36
2020/12/16 07:31:09;;;;;;;53.63;30.57;;;;;;;6.12;100.00;100425.66;5077693;28;20200;-34
2020/12/16 07:33:55;;;;;;;53.67;29.60;;;;;;;6.06;100.00;100427.28;5077233;28;20254;-32
2020/12/16 07:36:41;;;;;;;51.83;29.30;;;;;;;6.03;100.00;100432.38;5077559;28;20253;-34
2020/12/16 07:39:29;;;;;;;45.37;27.53;;;;;;;6.02;100.00;100439.22;5078579;28;20295;-32
2020/12/16 07:42:23;;;;;;;53.27;29.67;;;;;;;6.02;100.00;100439.22;5078426;28;20204;-34
2020/12/16 07:45:16;;;;;;;49.37;29.07;;;;;;;5.99;100.00;100440.91;5078900;28;20594;-32
2020/12/16 07:48:02;;;;;;;44.70;27.37;;;;;;;5.98;100.00;100444.31;5087196;28;20211;-35
2020/12/16 07:50:49;;;;;;;47.27;27.07;;;;;;;5.94;100.00;100445.09;5098356;28;20854;-35
2020/12/16 07:53:36;;;;;;;46.83;26.83;;;;;;;6.07;100.00;100436.69;5098276;28;20503;-34
2020/12/16 07:56:21;;;;;;;42.80;26.97;;;;;;;6.06;100.00;100438.41;5090441;28;20226;-34
2020/12/16 07:59:12;;;;;;;47.60;26.43;;;;;;;6.15;100.00;100438.53;5098674;28;20300;-34
2020/12/16 08:02:08;;;;;;;41.03;25.47;;;;;;;6.41;100.00;100445.66;5098272;28;20210;-37
2020/12/16 08:04:55;;;;;;;43.10;25.90;;;;;;;6.31;100.00;100444.69;5097990;28;20198;-33
2020/12/16 08:07:41;;;;;;;39.50;23.93;;;;;;;6.19;100.00;100442.84;5098074;28;20586;-33
2020/12/16 08:10:28;;;;;;;43.60;25.00;;;;;;;6.35;100.00;100440.47;5097579;28;20288;-33
2020/12/16 08:13:20;;;;;;;44.47;25.47;;;;;;;6.44;100.00;100437.97;5098102;28;20204;-32
2020/12/16 08:16:07;;;;;;;41.77;24.70;;;;;;;6.65;100.00;100448.50;5097687;28;20245;-35
2020/12/16 08:18:53;;;;;;;44.30;25.33;;;;;;;6.40;100.00;100449.94;5097364;28;20203;-32
2020/12/16 08:21:39;;;;;;;41.80;26.00;;;;;;;6.36;100.00;100448.19;5097438;28;20288;-34
2020/12/16 08:24:27;;;;;;;46.57;27.00;;;;;;;6.38;100.00;100445.66;5096605;28;20640;-34
2020/12/16 08:27:18;;;;;;;41.33;26.10;;;;;;;6.37;100.00;100446.50;5093067;28;20223;-35
2020/12/16 08:30:06;;;;;;;43.00;25.83;;;;;;;6.44;100.00;100441.41;5083545;28;20203;-34
2020/12/16 08:32:58;;;;;;;40.40;24.80;;;;;;;6.58;100.00;100441.59;5081222;28;20271;-32
2020/12/16 08:35:50;;;;;;;38.23;24.13;;;;;;;6.80;100.00;100442.63;5097336;28;20285;-34
2020/12/16 08:38:38;;;;;;;33.33;21.67;;;;;;;6.78;100.00;100442.63;5096299;28;20238;-34
2020/12/16 08:41:27;;;;;;;44.07;24.30;;;;;;;6.88;100.00;100441.00;5097051;28;20493;-36
2020/12/16 08:44:21;;;;;;;34.57;22.83;;;;;;;6.91;100.00;100444.47;5097077;28;20206;-33
2020/12/16 08:47:10;;;;;;;39.17;23.90;;;;;;;7.19;100.00;100442.97;5096377;28;20218;-33
2020/12/16 08:49:55;;;;;;;33.57;22.37;;;;;;;7.40;100.00;100451.69;5097049;28;20356;-33
2020/12/16 08:52:44;;;;;;;33.23;21.93;;;;;;;7.40;100.00;100454.28;5097195;28;20207;-34
2020/12/16 08:55:35;;;;;;;31.33;21.17;;;;;;;7.50;100.00;100445.78;5096289;28;20218;-33
2020/12/16 08:58:24;;;;;;;31.70;21.63;;;;;;;7.60;100.00;100452.69;5095602;28;20209;-35
2020/12/16 09:01:10;;;;;;;31.93;20.60;;;;;;;7.78;100.00;100446.81;5096685;28;20641;-33
2020/12/16 09:03:55;;;;;;;30.90;20.30;;;;;;;7.81;100.00;100451.97;5097064;28;20605;-33
2020/12/16 09:06:41;;;;;;;22.90;17.40;;;;;;;7.73;100.00;100453.66;5096627;28;20295;-35
2020/12/16 09:09:27;;;;;;;29.27;20.20;;;;;;;7.73;100.00;100463.94;5096642;28;20192;-34
2020/12/16 09:12:16;;;;;;;24.40;16.37;;;;;;;7.71;100.00;100465.66;5097234;28;20204;-34
2020/12/16 09:15:03;;;;;;;25.43;17.33;;;;;;;7.62;100.00;100469.00;5096046;28;20496;-34
2020/12/16 09:17:53;;;;;;;26.20;17.23;;;;;;;7.64;100.00;100467.31;5096444;28;20599;-48
2020/12/16 09:20:38;;;;;;;24.27;15.00;;;;;;;7.65;100.00;100465.59;5096933;28;20205;-34
2020/12/16 09:23:25;;;;;;;21.70;15.53;;;;;;;7.65;100.00;100468.19;5096795;28;20286;-35
2020/12/16 09:26:12;;;;;;;23.83;15.97;;;;;;;7.76;100.00;100461.41;5097133;28;20219;-36
2020/12/16 09:28:58;;;;;;;25.03;18.00;;;;;;;7.79;100.00;100470.00;5096252;28;20363;-36
2020/12/16 09:31:48;;;;;;;28.27;18.47;;;;;;;7.86;100.00;100473.47;5096560;28;20203;-32
2020/12/16 09:34:39;;;;;;;20.73;14.87;;;;;;;7.92;100.00;100471.78;5096612;28;20776;-36
2020/12/16 09:37:30;;;;;;;24.63;16.27;;;;;;;7.87;100.00;100472.59;5095683;28;20231;-35
2020/12/16 09:40:16;;;;;;;21.37;14.70;;;;;;;7.90;100.00;100472.63;5096784;28;20201;-33
2020/12/16 09:43:04;;;;;;;20.33;15.07;;;;;;;7.98;100.00;100478.69;5096532;28;20201;-34
2020/12/16 09:45:53;;;;;;;20.30;14.43;;;;;;;8.01;100.00;100480.41;5097062;28;20270;-34
2020/12/16 09:48:40;;;;;;;18.60;14.17;;;;;;;8.05;100.00;100479.56;5096383;28;20339;-35
2020/12/16 09:51:37;;;;;;;18.57;13.37;;;;;;;8.46;100.00;100478.06;5096784;28;20194;-37
2020/12/16 09:54:32;;;;;;;17.63;12.33;;;;;;;8.77;100.00;100471.28;5097248;28;20349;-33
2020/12/16 09:57:25;;;;;;;14.87;10.90;;;;;;;8.94;100.00;100468.72;5095186;28;20337;-34
2020/12/16 10:00:19;;;;;;;16.87;12.43;;;;;;;8.86;100.00;100466.13;5088112;28;20223;-35
2020/12/16 10:03:06;;;;;;;13.60;11.47;;;;;;;9.07;100.00;100464.41;5090095;28;20219;-34
2020/12/16 10:05:52;;;;;;;15.47;10.53;;;;;;;9.18;100.00;100455.84;5076284;28;20204;-33
2020/12/16 10:08:38;;;;;;;12.13;10.10;;;;;;;9.37;100.00;100450.66;5076096;28;20192;-33
2020/12/16 10:11:24;;;;;;;12.90;9.37;;;;;;;9.78;100.00;100442.84;5076153;28;20204;-32
2020/12/16 10:14:11;;;;;;;11.63;9.60;;;;;;;10.35;100.00;100446.97;5075591;28;20200;-34
2020/12/16 10:16:58;;;;;;;11.83;9.77;;;;;;;10.57;100.00;100437.38;5075602;28;20495;-35
2020/12/16 10:19:44;;;;;;;12.93;9.23;;;;;;;10.76;100.00;100441.56;5075545;28;20604;-36
2020/12/16 10:22:30;;;;;;;8.93;8.03;;;;;;;10.76;100.00;100445.88;5075201;28;20253;-36
2020/12/16 10:25:16;;;;;;;9.70;8.70;;;;;;;11.06;100.00;100437.88;5075752;28;20200;-34
2020/12/16 10:28:01;;;;;;;10.80;8.07;;;;;;;11.08;100.00;100437.88;5077261;28;20556;-33
2020/12/16 10:30:48;;;;;;;9.20;8.23;;;;;;;10.86;100.00;100442.34;5079430;28;20199;-34
2020/12/16 10:33:35;;;;;;;10.33;9.27;;;;;;;11.09;100.00;100435.28;5078976;28;20589;-35
2020/12/16 10:36:21;;;;;;;10.40;8.40;;;;;;;10.97;100.00;100437.97;5079671;28;20199;-37
2020/12/16 10:39:06;;;;;;;9.20;8.30;;;;;;;11.00;100.00;100425.84;5079444;28;20529;-36
2020/12/16 10:41:57;;;;;;;9.53;8.47;;;;;;;11.04;100.00;100431.84;5079252;28;20613;-37
2020/12/16 10:44:43;;;;;;;8.83;8.03;;;;;;;10.97;100.00;100435.38;5079149;28;20536;-34
2020/12/16 10:47:32;;;;;;;9.57;8.57;;;;;;;10.95;100.00;100430.22;5078803;28;20533;-36
2020/12/16 10:50:18;;;;;;;9.97;8.40;;;;;;;10.81;100.00;100432.00;5079520;28;20290;-36
2020/12/16 10:53:04;;;;;;;11.80;9.23;;;;;;;10.56;100.00;100444.28;5079470;28;20200;-33
2020/12/16 10:55:50;;;;;;;9.50;8.50;;;;;;;10.37;100.00;100434.03;5079057;28;20657;-34
2020/12/16 10:58:37;;;;;;;9.93;8.80;;;;;;;10.60;100.00;100434.75;5079614;28;20597;-34
2020/12/16 11:01:23;;;;;;;10.70;8.60;;;;;;;10.55;100.00;100426.19;5079214;28;20265;-35
2020/12/16 11:04:09;;;;;;;9.80;8.80;;;;;;;11.00;100.00;100424.97;5078138;28;20219;-35
2020/12/16 11:06:55;;;;;;;11.57;8.80;;;;;;;10.93;100.00;100420.72;5078692;28;20227;-35
2020/12/16 11:09:43;;;;;;;10.23;9.13;;;;;;;10.69;100.00;100414.00;5078351;28;20598;-31
2020/12/16 11:12:30;;;;;;;13.30;9.30;;;;;;;10.10;100.00;100414.31;5078638;28;20596;-34
2020/12/16 11:15:19;;;;;;;10.57;9.10;;;;;;;9.84;100.00;100410.09;5077798;28;20195;-35
2020/12/16 11:18:04;;;;;;;11.27;9.87;;;;;;;9.77;100.00;100410.13;5076577;28;20200;-33
2020/12/16 11:21:01;;;;;;;11.30;10.20;;;;;;;9.83;100.00;100412.66;5080371;28;20259;-34
2020/12/16 11:23:47;;;;;;;11.93;10.73;;;;;;;9.80;100.00;100407.50;5098261;28;20203;-34
2020/12/16 11:26:36;;;;;;;14.03;10.83;;;;;;;9.71;100.00;100408.41;5098010;28;20294;-33
2020/12/16 11:29:25;;;;;;;12.90;11.47;;;;;;;9.80;100.00;100403.19;5098257;28;20196;-36
2020/12/16 11:32:11;;;;;;;14.53;11.60;;;;;;;9.67;100.00;100397.22;5098554;28;20239;-37
2020/12/16 11:34:57;;;;;;;12.53;10.83;;;;;;;9.69;100.00;100392.06;5086708;28;20202;-33
2020/12/16 11:37:44;;;;;;;12.73;11.07;;;;;;;9.76;100.00;100387.75;5078631;28;20236;-32
2020/12/16 11:40:32;;;;;;;21.47;11.90;;;;;;;9.80;100.00;100377.38;5077153;28;20258;-33
2020/12/16 11:43:18;;;;;;;13.60;10.83;;;;;;;9.81;100.00;100385.97;5076729;28;20204;-34
2020/12/16 11:46:08;;;;;;;13.13;10.57;;;;;;;9.84;100.00;100373.06;5077454;28;20573;-38
2020/12/16 11:48:57;;;;;;;15.03;11.40;;;;;;;9.87;100.00;100368.72;5077942;28;20287;-36
2020/12/16 11:51:43;;;;;;;11.27;9.93;;;;;;;9.77;100.00;100367.06;5077926;28;20195;-35
2020/12/16 11:54:29;;;;;;;13.37;10.40;;;;;;;9.93;100.00;100368.72;5077767;28;20640;-34
2020/12/16 11:57:16;;;;;;;11.27;9.60;;;;;;;10.01;100.00;100366.94;5077235;28;20200;-37
2020/12/16 12:00:23;;;;;;;11.47;9.63;;;;;;;10.05;100.00;100365.22;5089811;28;20224;-32
2020/12/16 12:03:11;;;;;;;10.97;8.60;;;;;;;10.11;100.00;100357.44;5097836;28;20202;-38
2020/12/16 12:06:01;;;;;;;12.37;9.50;;;;;;;10.50;100.00;100352.91;5098594;28;20191;-37
2020/12/16 12:08:47;;;;;;;11.73;9.20;;;;;;;10.48;100.00;100352.91;5098017;28;20344;-35
2020/12/16 12:11:33;;;;;;;12.17;9.20;;;;;;;10.58;100.00;100352.00;5098022;28;20199;-36
2020/12/16 12:14:22;;;;;;;11.93;8.93;;;;;;;10.61;100.00;100346.78;5098153;28;20199;-32
2020/12/16 12:17:09;;;;;;;10.07;8.97;;;;;;;10.74;100.00;100347.56;5097795;28;20536;-37
2020/12/16 12:19:56;;;;;;;13.00;9.50;;;;;;;10.72;100.00;100351.03;5096902;28;20280;-33
2020/12/16 12:22:42;;;;;;;8.87;7.40;;;;;;;11.04;100.00;100346.41;5098238;28;20199;-34
2020/12/16 12:25:28;;;;;;;9.57;8.13;;;;;;;11.05;100.00;100340.38;5097702;28;20218;-36
2020/12/16 12:28:18;;;;;;;9.67;8.60;;;;;;;10.82;100.00;100343.16;5097595;28;20231;-32
2020/12/16 12:31:04;;;;;;;8.60;7.70;;;;;;;11.07;100.00;100340.34;5097196;28;20299;-36
2020/12/16 12:33:50;;;;;;;9.43;7.63;;;;;;;11.07;100.00;100346.41;5096430;28;20355;-35
2020/12/16 12:36:36;;;;;;;12.37;7.37;;;;;;;11.03;100.00;100342.97;5097248;28;20195;-34
2020/12/16 12:39:24;;;;;;;8.53;7.70;;;;;;;11.38;100.00;100337.47;5096586;28;20230;-35
2020/12/16 12:42:11;;;;;;;9.23;8.20;;;;;;;11.62;100.00;100338.03;5096969;28;20198;-37